createdAt,value
2019-03-22T00:02:15.445Z,106.17
2019-03-22T00:04:43.648Z,104.57
2019-03-22T00:07:11.889Z,101.37
2019-03-22T00:09:40.110Z,91.57
2019-03-22T00:12:08.372Z,109.30
2019-03-22T00:14:37.122Z,111.60
2019-03-22T00:17:05.469Z,105.00
2019-03-22T00:19:33.657Z,101.70
2019-03-22T00:22:01.897Z,103.57
2019-03-22T00:24:30.174Z,102.43
2019-03-22T00:26:58.357Z,97.20
2019-03-22T00:29:26.600Z,101.27
2019-03-22T00:31:54.826Z,110.00
2019-03-22T00:34:23.020Z,113.10
2019-03-22T00:36:51.221Z,99.27
2019-03-22T00:39:19.439Z,93.83
2019-03-22T00:41:47.669Z,109.07
2019-03-22T00:44:15.864Z,102.33
2019-03-22T00:46:44.068Z,106.00
2019-03-22T00:49:12.261Z,113.50
2019-03-22T00:51:40.454Z,112.30
2019-03-22T00:54:08.640Z,104.07
2019-03-22T00:56:36.840Z,100.87
2019-03-22T00:59:05.069Z,94.60
2019-03-22T01:01:33.305Z,101.80
2019-03-22T01:04:01.533Z,108.33
2019-03-22T01:06:29.727Z,98.47
2019-03-22T01:08:57.917Z,100.93
2019-03-22T01:11:26.145Z,98.90
2019-03-22T01:13:54.377Z,104.20
2019-03-22T01:16:22.555Z,99.10
2019-03-22T01:18:50.789Z,88.27
2019-03-22T01:21:18.966Z,103.87
2019-03-22T01:23:47.160Z,96.30
2019-03-22T01:26:15.346Z,89.23
2019-03-22T01:28:43.547Z,89.27
2019-03-22T01:31:11.731Z,89.33
2019-03-22T01:33:39.953Z,96.97
2019-03-22T01:36:08.204Z,94.60
2019-03-22T01:38:36.453Z,84.10
2019-03-22T01:41:04.632Z,90.57
2019-03-22T01:43:32.851Z,92.70
2019-03-22T01:46:01.041Z,82.73
2019-03-22T01:48:29.257Z,79.57
2019-03-22T01:50:57.473Z,89.70
2019-03-22T01:53:25.697Z,82.50
2019-03-22T01:55:53.913Z,85.83
2019-03-22T01:58:22.099Z,83.23
2019-03-22T02:00:50.300Z,77.83
2019-03-22T02:03:18.480Z,75.47
2019-03-22T02:05:46.705Z,83.97
2019-03-22T02:08:14.908Z,76.43
2019-03-22T02:10:43.126Z,81.23
2019-03-22T02:13:11.303Z,74.80
2019-03-22T02:15:39.528Z,83.50
2019-03-22T02:18:07.720Z,81.77
2019-03-22T02:20:35.904Z,75.55
2019-03-22T02:23:04.136Z,82.90
2019-03-22T02:25:33.293Z,83.03
2019-03-22T02:28:04.330Z,73.87
2019-03-22T02:30:31.429Z,72.30
2019-03-22T02:32:59.670Z,66.60
2019-03-22T02:37:56.914Z,70.75
2019-03-22T02:42:52.453Z,70.40
2019-03-22T02:45:20.677Z,67.77
2019-03-22T02:47:48.857Z,68.43
2019-03-22T02:50:19.191Z,66.25
2019-03-22T02:52:46.936Z,67.23
2019-03-22T02:55:15.182Z,68.67
2019-03-22T02:57:43.431Z,70.40
2019-03-22T03:00:12.789Z,76.43
2019-03-22T03:02:40.977Z,66.17
2019-03-22T03:05:09.770Z,68.10
2019-03-22T03:07:38.022Z,75.00
2019-03-22T03:10:07.756Z,68.50
2019-03-22T03:12:35.979Z,65.65
2019-03-22T03:15:05.708Z,76.70
2019-03-22T03:17:33.888Z,66.33
2019-03-22T03:20:02.107Z,72.30
2019-03-22T03:22:30.371Z,70.70
2019-03-22T03:24:58.585Z,71.80
2019-03-22T03:27:26.809Z,71.30
2019-03-22T03:29:55.001Z,74.17
2019-03-22T03:32:23.231Z,69.70
2019-03-22T03:37:18.802Z,78.47
2019-03-22T03:39:47.021Z,79.53
2019-03-22T03:42:15.214Z,75.10
2019-03-22T03:44:43.415Z,75.80
2019-03-22T03:47:11.641Z,84.40
2019-03-22T03:49:39.861Z,77.00
2019-03-22T03:52:08.082Z,86.50
2019-03-22T03:54:36.336Z,72.80
2019-03-22T03:57:04.590Z,85.40
2019-03-22T03:59:32.798Z,81.17
2019-03-22T04:02:00.981Z,80.20
2019-03-22T04:04:29.178Z,88.57
2019-03-22T04:06:57.361Z,80.17
2019-03-22T04:09:25.664Z,87.10
2019-03-22T04:11:53.892Z,91.73
2019-03-22T04:14:22.076Z,95.30
2019-03-22T04:16:50.268Z,95.27
2019-03-22T04:19:18.502Z,97.57
2019-03-22T04:21:46.726Z,111.93
2019-03-22T04:24:15.009Z,99.47
2019-03-22T04:26:43.208Z,101.93
2019-03-22T04:29:11.426Z,99.57
2019-03-22T04:31:39.713Z,93.37
2019-03-22T04:34:07.933Z,97.13
2019-03-22T04:36:36.237Z,94.70
2019-03-22T04:41:44.204Z,98.00
2019-03-22T04:44:12.427Z,103.30
2019-03-22T04:46:41.521Z,104.57
2019-03-22T04:49:09.808Z,96.13
2019-03-22T04:51:39.093Z,103.50
2019-03-22T04:54:07.867Z,112.10
2019-03-22T04:56:37.379Z,100.67
2019-03-22T04:59:17.933Z,95.83
2019-03-22T05:01:38.196Z,105.23
2019-03-22T05:04:07.164Z,103.43
2019-03-22T05:06:35.959Z,113.53
2019-03-22T05:09:05.713Z,99.57
2019-03-22T05:11:33.942Z,96.83
2019-03-22T05:14:02.233Z,98.30
2019-03-22T05:16:30.713Z,98.23
2019-03-22T05:19:00.432Z,100.30
2019-03-22T05:21:28.781Z,96.50
2019-03-22T05:23:58.509Z,90.25
2019-03-22T05:26:27.772Z,80.40
2019-03-22T05:28:56.049Z,75.10
2019-03-22T05:31:31.616Z,76.00
2019-03-22T05:33:59.822Z,72.80
2019-03-22T05:36:28.016Z,77.00
2019-03-22T05:43:50.910Z,74.60
2019-03-22T05:48:46.527Z,72.50
2019-03-22T05:51:14.754Z,73.15
2019-03-22T05:53:43.034Z,69.00
2019-03-22T05:56:11.220Z,83.75
2019-03-22T05:58:39.442Z,71.90
2019-03-22T06:01:07.689Z,76.07
2019-03-22T06:03:35.872Z,78.70
2019-03-22T06:06:04.087Z,71.95
2019-03-22T06:08:32.363Z,73.00
2019-03-22T06:11:00.543Z,74.07
2019-03-22T06:13:28.728Z,73.10
2019-03-22T06:15:56.924Z,73.40
2019-03-22T06:18:25.153Z,81.57
2019-03-22T06:20:53.335Z,72.20
2019-03-22T06:23:21.545Z,83.37
2019-03-22T06:25:49.823Z,83.15
2019-03-22T06:28:18.040Z,75.37
2019-03-22T06:30:46.266Z,81.97
2019-03-22T06:33:14.477Z,75.53
2019-03-22T06:35:42.692Z,83.20
2019-03-22T06:38:10.909Z,72.20
2019-03-22T06:40:39.122Z,81.17
2019-03-22T06:43:07.324Z,78.90
2019-03-22T06:45:35.508Z,79.55
2019-03-22T06:48:03.989Z,81.15
2019-03-22T06:50:32.183Z,76.60
2019-03-22T06:53:00.398Z,65.05
2019-03-22T06:55:28.592Z,63.55
2019-03-22T06:57:56.782Z,67.30
2019-03-22T07:00:24.972Z,66.00
2019-03-22T07:02:53.167Z,63.50
2019-03-22T07:05:21.385Z,73.80
2019-03-22T07:17:39.085Z,73.30
2019-03-22T07:20:07.673Z,72.60
2019-03-22T07:25:04.724Z,71.20
2019-03-22T07:27:32.961Z,63.93
2019-03-22T07:30:02.648Z,65.33
2019-03-22T07:32:30.840Z,62.65
2019-03-22T07:34:59.038Z,58.60
2019-03-22T07:37:27.223Z,62.60
2019-03-22T07:39:55.454Z,64.60
2019-03-22T07:42:23.741Z,57.20
2019-03-22T07:44:51.952Z,59.75
2019-03-22T07:47:21.068Z,62.10
2019-03-22T07:54:43.955Z,66.10
2019-03-22T07:57:12.168Z,60.95
2019-03-22T07:59:40.360Z,54.50
2019-03-22T08:02:08.558Z,56.85
2019-03-22T08:04:37.637Z,60.70
2019-03-22T08:07:05.846Z,62.75
2019-03-22T08:09:34.076Z,59.50
2019-03-22T08:12:03.254Z,51.20
2019-03-22T08:14:32.417Z,53.80
2019-03-22T08:17:00.675Z,63.80
2019-03-22T08:19:29.793Z,52.70
2019-03-22T08:21:57.972Z,51.20
2019-03-22T08:24:26.196Z,49.70
2019-03-22T08:26:54.443Z,53.40
2019-03-22T08:34:17.348Z,53.90
2019-03-22T08:41:40.470Z,55.80
2019-03-22T08:44:08.713Z,60.03
2019-03-22T08:46:36.915Z,63.20
2019-03-22T08:49:05.151Z,58.90
2019-03-22T08:51:33.501Z,52.55
2019-03-22T08:54:01.804Z,49.10
2019-03-22T08:56:30.051Z,54.70
2019-03-22T08:58:58.285Z,48.95
2019-03-22T09:01:26.502Z,57.35
2019-03-22T09:03:54.686Z,53.80
2019-03-22T09:06:22.877Z,49.60
2019-03-22T09:08:51.105Z,57.75
2019-03-22T09:11:19.413Z,52.73
2019-03-22T09:13:47.677Z,55.27
2019-03-22T09:16:15.935Z,53.10
2019-03-22T09:18:44.175Z,58.60
2019-03-22T09:21:12.442Z,56.40
2019-03-22T09:23:40.734Z,54.33
2019-03-22T09:26:09.034Z,58.10
2019-03-22T09:28:37.418Z,54.50
2019-03-22T09:31:11.675Z,54.13
2019-03-22T09:33:35.569Z,52.10
2019-03-22T09:36:03.881Z,54.27
2019-03-22T09:38:32.185Z,55.70
2019-03-22T09:41:00.436Z,54.50
2019-03-22T09:43:28.673Z,50.97
2019-03-22T09:50:51.821Z,51.55
2019-03-22T09:53:20.078Z,53.95
2019-03-22T09:55:49.207Z,56.80
2019-03-22T10:00:48.268Z,62.00
2019-03-22T10:03:14.716Z,42.70
2019-03-22T10:10:37.675Z,45.70
2019-03-22T10:35:25.002Z,59.60
2019-03-22T10:37:42.427Z,58.00
2019-03-22T10:40:10.835Z,62.40
2019-03-22T10:42:39.062Z,60.93
2019-03-22T10:45:07.627Z,63.45
2019-03-22T10:47:35.939Z,73.03
2019-03-22T10:50:08.144Z,79.20
2019-03-22T10:52:36.424Z,67.35
2019-03-22T10:55:23.224Z,65.65
2019-03-22T10:57:35.869Z,55.30
2019-03-22T11:00:05.589Z,55.80
2019-03-22T11:02:33.818Z,56.87
2019-03-22T11:05:02.329Z,56.23
2019-03-22T11:07:30.829Z,56.53
2019-03-22T11:09:59.961Z,55.40
2019-03-22T11:12:28.175Z,56.00
2019-03-22T11:14:56.388Z,52.60
2019-03-22T11:17:24.572Z,50.50
2019-03-22T11:19:52.765Z,54.57
2019-03-22T11:22:20.981Z,58.40
2019-03-22T11:34:40.226Z,55.57
2019-03-22T11:37:09.309Z,59.70
2019-03-22T11:39:38.408Z,58.73
2019-03-22T11:42:07.511Z,57.17
2019-03-22T11:44:35.721Z,61.70
2019-03-22T11:47:03.946Z,56.00
2019-03-22T11:49:32.169Z,59.20
2019-03-22T11:52:01.326Z,53.20
2019-03-22T11:54:29.550Z,57.63
2019-03-22T11:56:57.776Z,60.90
2019-03-22T11:59:27.045Z,55.43
2019-03-22T12:01:55.223Z,63.30
2019-03-22T12:04:23.416Z,59.70
2019-03-22T12:06:51.633Z,70.00
2019-03-22T12:09:19.819Z,60.80
2019-03-22T12:14:15.456Z,57.77
2019-03-22T12:16:43.677Z,61.90
2019-03-22T12:19:11.865Z,57.13
2019-03-22T12:29:02.208Z,62.50
2019-03-22T12:31:30.445Z,59.70
2019-03-22T12:33:58.781Z,54.63
2019-03-22T12:36:26.965Z,55.20
2019-03-22T12:41:22.500Z,61.90
2019-03-22T12:46:18.153Z,52.00
2019-03-22T12:51:13.707Z,56.70
2019-03-22T12:53:41.930Z,57.20
2019-03-22T13:01:04.904Z,51.80
2019-03-22T13:08:27.796Z,45.50
2019-03-22T13:18:18.066Z,57.00
2019-03-22T13:47:47.286Z,47.40
2019-03-22T16:02:36.633Z,36.17
2019-03-22T16:05:06.737Z,42.30
2019-03-22T16:07:34.924Z,38.90
2019-03-22T16:10:04.584Z,35.60
2019-03-22T16:12:32.809Z,36.80
2019-03-22T16:15:01.107Z,39.33
2019-03-22T16:17:29.300Z,37.80
2019-03-22T16:19:57.493Z,38.80
2019-03-22T16:22:25.680Z,36.00
2019-03-22T16:24:53.888Z,46.10
2019-03-22T16:27:22.067Z,38.17
2019-03-22T16:29:50.337Z,36.10
2019-03-22T16:32:18.560Z,36.20
2019-03-22T16:34:46.839Z,36.00
2019-03-22T16:37:15.028Z,37.50
2019-03-22T16:39:43.221Z,37.83
2019-03-22T16:42:11.458Z,35.83
2019-03-22T16:44:39.749Z,35.83
2019-03-22T16:47:07.968Z,38.43
2019-03-22T16:49:36.190Z,38.67
2019-03-22T16:52:04.580Z,35.70
2019-03-22T16:54:32.803Z,40.50
2019-03-22T16:57:01.024Z,35.73
2019-03-22T16:59:29.253Z,38.33
2019-03-22T17:01:57.444Z,38.10
2019-03-22T17:04:25.663Z,39.20
2019-03-22T17:06:53.927Z,39.33
2019-03-22T17:09:22.199Z,41.17
2019-03-22T17:11:50.423Z,42.80
2019-03-22T17:14:18.616Z,42.90
2019-03-22T17:31:31.056Z,49.50
2019-03-22T17:33:59.277Z,57.43
2019-03-22T17:36:27.549Z,54.40
2019-03-22T17:38:55.739Z,59.50
2019-03-22T17:41:24.824Z,57.57
2019-03-22T17:43:53.055Z,58.40
2019-03-22T17:46:21.346Z,56.40
2019-03-22T17:48:49.590Z,54.10
2019-03-22T17:51:17.806Z,58.30
2019-03-22T17:53:45.994Z,60.70
2019-03-22T18:28:09.935Z,67.85
2019-03-22T18:30:38.164Z,76.10
2019-03-22T18:33:06.359Z,74.60
2019-03-22T18:35:34.600Z,73.37
2019-03-22T19:14:53.523Z,108.47
2019-03-22T19:17:21.874Z,104.70
2019-03-22T19:19:50.124Z,110.83
2019-03-22T19:22:18.350Z,109.87
2019-03-22T19:24:46.548Z,104.50
2019-03-22T19:27:14.739Z,103.13
2019-03-22T19:29:42.981Z,107.50
2019-03-22T19:32:13.781Z,112.53
2019-03-22T19:34:41.061Z,114.40
2019-03-22T19:37:09.369Z,121.40
2019-03-22T19:39:37.639Z,105.85
2019-03-22T19:42:05.839Z,113.17
2019-03-22T19:44:34.066Z,118.50
2019-03-22T19:49:29.711Z,120.50
2019-03-22T19:51:57.948Z,116.40
2019-03-22T19:54:26.168Z,118.00
2019-03-22T19:56:54.400Z,119.20
2019-03-22T19:59:22.669Z,108.83
2019-03-22T20:04:18.220Z,112.70
2019-03-22T20:09:13.799Z,122.60
2019-03-22T20:11:41.988Z,136.40
2019-03-22T20:16:37.587Z,118.40
2019-03-22T20:28:55.213Z,114.30
2019-03-22T20:31:23.423Z,119.50
2019-03-22T20:33:51.632Z,119.50
2019-03-22T20:36:19.837Z,118.60
2019-03-22T20:41:15.391Z,109.70
2019-03-22T20:43:43.583Z,117.50
2019-03-22T20:46:11.890Z,122.60
2019-03-22T20:48:40.169Z,112.40
2019-03-22T20:51:08.393Z,118.43
2019-03-22T20:56:03.936Z,121.80
2019-03-22T20:58:32.136Z,125.70
2019-03-22T21:01:00.344Z,129.90
2019-03-22T21:03:28.577Z,135.57
2019-03-22T21:05:56.800Z,129.83
2019-03-22T21:08:25.007Z,128.60
2019-03-22T21:10:53.230Z,120.60
2019-03-22T21:13:21.423Z,118.63
2019-03-22T21:15:49.649Z,135.93
2019-03-22T21:18:17.868Z,125.45
2019-03-22T21:20:46.096Z,143.20
2019-03-22T21:23:14.284Z,125.73
2019-03-22T21:25:42.489Z,129.07
2019-03-22T21:28:10.719Z,125.70
2019-03-22T21:30:38.992Z,121.73
2019-03-22T21:33:07.255Z,135.80
2019-03-22T21:35:37.483Z,133.20
2019-03-22T21:38:10.941Z,120.83
2019-03-22T21:40:35.346Z,139.57
2019-03-22T21:43:03.646Z,127.63
2019-03-22T21:45:31.942Z,134.90
2019-03-22T21:48:00.216Z,140.80
2019-03-22T21:50:28.409Z,130.10
2019-03-22T21:52:56.616Z,151.23
2019-03-22T21:55:24.804Z,136.63
2019-03-22T21:57:53.037Z,137.07
2019-03-22T22:00:21.265Z,130.93
2019-03-22T22:02:49.488Z,133.83
2019-03-22T22:05:18.470Z,132.40
2019-03-22T22:07:46.660Z,131.20
